sensor_id;sensor_type;location;lat;lon;timestamp;P1;durP1;ratioP1;P2;durP2;ratioP2
38609;SDS011;24367;51.640;9.566;2024-02-21T00:01:18;9.48;;;3.65;;
38609;SDS011;24367;51.640;9.566;2024-02-21T00:03:45;6.88;;;2.67;;
38609;SDS011;24367;51.640;9.566;2024-02-21T00:06:11;8.05;;;2.88;;
38609;SDS011;24367;51.640;9.566;2024-02-21T00:08:38;6.63;;;2.97;;
38609;SDS011;24367;51.640;9.566;2024-02-21T00:11:06;6.35;;;2.97;;
38609;SDS011;24367;51.640;9.566;2024-02-21T00:13:32;8.00;;;3.75;;
38609;SDS011;24367;51.640;9.566;2024-02-21T00:15:59;6.88;;;2.40;;
38609;SDS011;24367;51.640;9.566;2024-02-21T00:18:26;6.65;;;2.75;;
38609;SDS011;24367;51.640;9.566;2024-02-21T00:20:53;8.80;;;2.40;;
38609;SDS011;24367;51.640;9.566;2024-02-21T00:23:19;8.25;;;2.60;;
38609;SDS011;24367;51.640;9.566;2024-02-21T00:25:46;5.20;;;2.80;;
38609;SDS011;24367;51.640;9.566;2024-02-21T00:28:13;5.72;;;2.60;;
38609;SDS011;24367;51.640;9.566;2024-02-21T00:30:40;6.38;;;2.70;;
38609;SDS011;24367;51.640;9.566;2024-02-21T00:33:07;7.03;;;2.97;;
38609;SDS011;24367;51.640;9.566;2024-02-21T00:35:33;4.80;;;2.22;;
38609;SDS011;24367;51.640;9.566;2024-02-21T00:37:59;8.35;;;2.83;;
38609;SDS011;24367;51.640;9.566;2024-02-21T00:40:28;6.20;;;2.28;;
38609;SDS011;24367;51.640;9.566;2024-02-21T00:42:54;6.05;;;2.70;;
38609;SDS011;24367;51.640;9.566;2024-02-21T00:45:22;5.47;;;2.85;;
38609;SDS011;24367;51.640;9.566;2024-02-21T00:47:49;7.70;;;3.08;;
38609;SDS011;24367;51.640;9.566;2024-02-21T00:50:15;8.13;;;3.22;;
38609;SDS011;24367;51.640;9.566;2024-02-21T00:52:42;8.48;;;3.67;;
38609;SDS011;24367;51.640;9.566;2024-02-21T00:55:09;4.45;;;2.33;;
38609;SDS011;24367;51.640;9.566;2024-02-21T00:57:35;4.93;;;2.28;;
38609;SDS011;24367;51.640;9.566;2024-02-21T01:00:02;5.78;;;2.70;;
38609;SDS011;24367;51.640;9.566;2024-02-21T01:02:30;5.97;;;2.65;;
38609;SDS011;24367;51.640;9.566;2024-02-21T01:04:57;7.18;;;2.65;;
38609;SDS011;24367;51.640;9.566;2024-02-21T01:07:24;5.30;;;2.83;;
38609;SDS011;24367;51.640;9.566;2024-02-21T01:09:50;6.20;;;2.85;;
38609;SDS011;24367;51.640;9.566;2024-02-21T01:12:17;6.70;;;2.60;;
38609;SDS011;24367;51.640;9.566;2024-02-21T01:14:44;4.43;;;2.47;;
38609;SDS011;24367;51.640;9.566;2024-02-21T01:17:11;6.00;;;2.50;;
38609;SDS011;24367;51.640;9.566;2024-02-21T01:19:39;4.47;;;2.00;;
38609;SDS011;24367;51.640;9.566;2024-02-21T01:22:05;5.20;;;2.20;;
38609;SDS011;24367;51.640;9.566;2024-02-21T01:24:32;5.22;;;2.40;;
38609;SDS011;24367;51.640;9.566;2024-02-21T01:26:58;7.28;;;2.83;;
38609;SDS011;24367;51.640;9.566;2024-02-21T01:29:25;5.63;;;2.70;;
38609;SDS011;24367;51.640;9.566;2024-02-21T01:31:51;5.05;;;2.60;;
38609;SDS011;24367;51.640;9.566;2024-02-21T01:34:17;4.13;;;2.40;;
38609;SDS011;24367;51.640;9.566;2024-02-21T01:36:45;3.42;;;2.13;;
38609;SDS011;24367;51.640;9.566;2024-02-21T01:39:12;6.65;;;2.33;;
38609;SDS011;24367;51.640;9.566;2024-02-21T01:41:38;5.10;;;2.35;;
38609;SDS011;24367;51.640;9.566;2024-02-21T01:44:05;5.82;;;2.20;;
38609;SDS011;24367;51.640;9.566;2024-02-21T01:46:32;4.60;;;1.92;;
38609;SDS011;24367;51.640;9.566;2024-02-21T01:48:59;4.43;;;2.25;;
38609;SDS011;24367;51.640;9.566;2024-02-21T01:51:25;4.65;;;2.10;;
38609;SDS011;24367;51.640;9.566;2024-02-21T01:53:54;4.63;;;2.28;;
38609;SDS011;24367;51.640;9.566;2024-02-21T01:56:21;5.07;;;2.47;;
38609;SDS011;24367;51.640;9.566;2024-02-21T01:58:48;5.78;;;2.33;;
38609;SDS011;24367;51.640;9.566;2024-02-21T02:01:15;5.47;;;2.13;;
38609;SDS011;24367;51.640;9.566;2024-02-21T02:03:42;5.10;;;2.72;;
38609;SDS011;24367;51.640;9.566;2024-02-21T02:06:11;4.47;;;1.95;;
38609;SDS011;24367;51.640;9.566;2024-02-21T02:08:37;3.90;;;2.13;;
38609;SDS011;24367;51.640;9.566;2024-02-21T02:11:05;3.90;;;2.28;;
38609;SDS011;24367;51.640;9.566;2024-02-21T02:13:32;5.07;;;1.98;;
38609;SDS011;24367;51.640;9.566;2024-02-21T02:15:59;4.45;;;2.30;;
38609;SDS011;24367;51.640;9.566;2024-02-21T02:18:25;4.93;;;2.65;;
38609;SDS011;24367;51.640;9.566;2024-02-21T02:20:52;3.75;;;2.25;;
38609;SDS011;24367;51.640;9.566;2024-02-21T02:23:22;7.15;;;2.58;;
38609;SDS011;24367;51.640;9.566;2024-02-21T02:25:49;3.78;;;2.00;;
38609;SDS011;24367;51.640;9.566;2024-02-21T02:28:17;4.22;;;2.15;;
38609;SDS011;24367;51.640;9.566;2024-02-21T02:30:44;5.43;;;2.25;;
38609;SDS011;24367;51.640;9.566;2024-02-21T02:33:11;4.95;;;2.65;;
38609;SDS011;24367;51.640;9.566;2024-02-21T02:35:37;4.50;;;2.10;;
38609;SDS011;24367;51.640;9.566;2024-02-21T02:38:04;4.25;;;2.05;;
38609;SDS011;24367;51.640;9.566;2024-02-21T02:40:33;4.28;;;2.15;;
38609;SDS011;24367;51.640;9.566;2024-02-21T02:43:00;4.97;;;2.63;;
38609;SDS011;24367;51.640;9.566;2024-02-21T02:45:26;3.08;;;1.83;;
38609;SDS011;24367;51.640;9.566;2024-02-21T02:47:53;4.10;;;2.20;;
38609;SDS011;24367;51.640;9.566;2024-02-21T02:50:20;3.75;;;2.33;;
38609;SDS011;24367;51.640;9.566;2024-02-21T02:52:46;3.95;;;2.13;;
38609;SDS011;24367;51.640;9.566;2024-02-21T02:55:13;4.35;;;2.30;;
38609;SDS011;24367;51.640;9.566;2024-02-21T02:57:41;4.13;;;2.30;;
38609;SDS011;24367;51.640;9.566;2024-02-21T03:00:08;4.03;;;2.10;;
38609;SDS011;24367;51.640;9.566;2024-02-21T03:02:37;4.82;;;2.30;;
38609;SDS011;24367;51.640;9.566;2024-02-21T03:05:11;6.03;;;2.13;;
38609;SDS011;24367;51.640;9.566;2024-02-21T03:07:38;3.90;;;2.15;;
38609;SDS011;24367;51.640;9.566;2024-02-21T03:10:05;4.10;;;2.22;;
38609;SDS011;24367;51.640;9.566;2024-02-21T03:12:32;4.10;;;2.10;;
38609;SDS011;24367;51.640;9.566;2024-02-21T03:14:59;3.60;;;2.00;;
38609;SDS011;24367;51.640;9.566;2024-02-21T03:17:26;5.00;;;1.98;;
38609;SDS011;24367;51.640;9.566;2024-02-21T03:19:53;4.40;;;1.95;;
38609;SDS011;24367;51.640;9.566;2024-02-21T03:22:20;4.22;;;1.98;;
38609;SDS011;24367;51.640;9.566;2024-02-21T03:24:47;3.40;;;1.90;;
38609;SDS011;24367;51.640;9.566;2024-02-21T03:27:13;4.60;;;1.83;;
38609;SDS011;24367;51.640;9.566;2024-02-21T03:29:40;3.92;;;2.05;;
38609;SDS011;24367;51.640;9.566;2024-02-21T03:32:08;4.60;;;2.08;;
38609;SDS011;24367;51.640;9.566;2024-02-21T03:34:34;3.80;;;1.83;;
38609;SDS011;24367;51.640;9.566;2024-02-21T03:37:01;3.55;;;2.00;;
38609;SDS011;24367;51.640;9.566;2024-02-21T03:39:30;3.45;;;1.90;;
38609;SDS011;24367;51.640;9.566;2024-02-21T03:41:57;3.65;;;1.85;;
38609;SDS011;24367;51.640;9.566;2024-02-21T03:44:25;3.13;;;1.85;;
38609;SDS011;24367;51.640;9.566;2024-02-21T03:46:52;3.22;;;1.77;;
38609;SDS011;24367;51.640;9.566;2024-02-21T03:49:19;3.67;;;1.83;;
38609;SDS011;24367;51.640;9.566;2024-02-21T03:51:46;3.28;;;1.77;;
38609;SDS011;24367;51.640;9.566;2024-02-21T03:54:12;3.47;;;2.10;;
38609;SDS011;24367;51.640;9.566;2024-02-21T03:56:39;3.47;;;2.15;;
38609;SDS011;24367;51.640;9.566;2024-02-21T03:59:06;2.60;;;1.52;;
38609;SDS011;24367;51.640;9.566;2024-02-21T04:01:33;3.95;;;2.15;;
38609;SDS011;24367;51.640;9.566;2024-02-21T04:03:59;3.83;;;1.85;;
38609;SDS011;24367;51.640;9.566;2024-02-21T04:06:27;3.92;;;1.60;;
38609;SDS011;24367;51.640;9.566;2024-02-21T04:08:54;3.50;;;2.08;;
38609;SDS011;24367;51.640;9.566;2024-02-21T04:11:20;2.92;;;2.00;;
38609;SDS011;24367;51.640;9.566;2024-02-21T04:13:47;3.17;;;1.98;;
38609;SDS011;24367;51.640;9.566;2024-02-21T04:16:15;3.58;;;2.35;;
38609;SDS011;24367;51.640;9.566;2024-02-21T04:18:42;2.97;;;1.70;;
38609;SDS011;24367;51.640;9.566;2024-02-21T04:21:08;4.15;;;1.83;;
38609;SDS011;24367;51.640;9.566;2024-02-21T04:23:36;2.70;;;1.65;;
38609;SDS011;24367;51.640;9.566;2024-02-21T04:26:03;3.60;;;1.70;;
38609;SDS011;24367;51.640;9.566;2024-02-21T04:28:29;2.97;;;1.55;;
38609;SDS011;24367;51.640;9.566;2024-02-21T04:30:56;3.22;;;1.80;;
38609;SDS011;24367;51.640;9.566;2024-02-21T04:33:22;3.55;;;1.80;;
38609;SDS011;24367;51.640;9.566;2024-02-21T04:35:49;3.33;;;2.03;;
38609;SDS011;24367;51.640;9.566;2024-02-21T04:38:15;3.10;;;1.80;;
38609;SDS011;24367;51.640;9.566;2024-02-21T04:40:43;2.67;;;1.55;;
38609;SDS011;24367;51.640;9.566;2024-02-21T04:43:09;3.83;;;1.75;;
38609;SDS011;24367;51.640;9.566;2024-02-21T04:45:36;3.10;;;1.63;;
38609;SDS011;24367;51.640;9.566;2024-02-21T04:48:03;3.50;;;1.63;;
38609;SDS011;24367;51.640;9.566;2024-02-21T04:50:29;5.03;;;2.63;;
38609;SDS011;24367;51.640;9.566;2024-02-21T04:52:56;3.53;;;2.00;;
38609;SDS011;24367;51.640;9.566;2024-02-21T04:55:22;2.95;;;1.85;;
38609;SDS011;24367;51.640;9.566;2024-02-21T04:57:50;3.33;;;1.63;;
38609;SDS011;24367;51.640;9.566;2024-02-21T05:00:17;2.78;;;1.58;;
38609;SDS011;24367;51.640;9.566;2024-02-21T05:02:44;3.65;;;1.73;;
38609;SDS011;24367;51.640;9.566;2024-02-21T05:05:10;3.60;;;1.58;;
38609;SDS011;24367;51.640;9.566;2024-02-21T05:07:37;2.45;;;1.38;;
38609;SDS011;24367;51.640;9.566;2024-02-21T05:10:03;3.92;;;1.90;;
38609;SDS011;24367;51.640;9.566;2024-02-21T05:12:31;3.53;;;1.40;;
38609;SDS011;24367;51.640;9.566;2024-02-21T05:14:59;2.72;;;1.50;;
38609;SDS011;24367;51.640;9.566;2024-02-21T05:17:25;2.83;;;1.65;;
38609;SDS011;24367;51.640;9.566;2024-02-21T05:19:52;3.08;;;1.70;;
38609;SDS011;24367;51.640;9.566;2024-02-21T05:22:18;3.00;;;1.60;;
38609;SDS011;24367;51.640;9.566;2024-02-21T05:24:45;2.85;;;1.60;;
38609;SDS011;24367;51.640;9.566;2024-02-21T05:27:11;3.67;;;1.77;;
38609;SDS011;24367;51.640;9.566;2024-02-21T05:29:38;4.25;;;1.77;;
38609;SDS011;24367;51.640;9.566;2024-02-21T05:32:06;2.90;;;1.50;;
38609;SDS011;24367;51.640;9.566;2024-02-21T05:34:32;3.10;;;1.50;;
38609;SDS011;24367;51.640;9.566;2024-02-21T05:36:59;3.30;;;1.70;;
38609;SDS011;24367;51.640;9.566;2024-02-21T05:39:26;2.58;;;1.27;;
38609;SDS011;24367;51.640;9.566;2024-02-21T05:41:54;2.50;;;1.55;;
38609;SDS011;24367;51.640;9.566;2024-02-21T05:44:20;3.08;;;1.42;;
38609;SDS011;24367;51.640;9.566;2024-02-21T05:46:47;3.00;;;1.60;;
38609;SDS011;24367;51.640;9.566;2024-02-21T05:49:15;3.35;;;1.50;;
38609;SDS011;24367;51.640;9.566;2024-02-21T05:51:42;3.47;;;1.60;;
38609;SDS011;24367;51.640;9.566;2024-02-21T05:54:08;2.72;;;1.40;;
38609;SDS011;24367;51.640;9.566;2024-02-21T05:56:35;2.60;;;1.40;;
38609;SDS011;24367;51.640;9.566;2024-02-21T05:59:01;2.83;;;1.35;;
38609;SDS011;24367;51.640;9.566;2024-02-21T06:01:27;3.00;;;1.60;;
38609;SDS011;24367;51.640;9.566;2024-02-21T06:03:54;4.45;;;1.45;;
38609;SDS011;24367;51.640;9.566;2024-02-21T06:06:22;2.10;;;1.13;;
38609;SDS011;24367;51.640;9.566;2024-02-21T06:08:49;3.55;;;1.58;;
38609;SDS011;24367;51.640;9.566;2024-02-21T06:11:15;3.55;;;1.67;;
38609;SDS011;24367;51.640;9.566;2024-02-21T06:13:42;3.10;;;1.48;;
38609;SDS011;24367;51.640;9.566;2024-02-21T06:16:08;4.78;;;1.50;;
38609;SDS011;24367;51.640;9.566;2024-02-21T06:18:35;2.15;;;1.10;;
38609;SDS011;24367;51.640;9.566;2024-02-21T06:21:03;3.42;;;1.67;;
38609;SDS011;24367;51.640;9.566;2024-02-21T06:23:31;2.28;;;1.20;;
38609;SDS011;24367;51.640;9.566;2024-02-21T06:25:57;2.85;;;1.52;;
38609;SDS011;24367;51.640;9.566;2024-02-21T06:28:24;2.85;;;1.67;;
38609;SDS011;24367;51.640;9.566;2024-02-21T06:30:50;3.63;;;1.40;;
38609;SDS011;24367;51.640;9.566;2024-02-21T06:33:17;3.75;;;1.60;;
38609;SDS011;24367;51.640;9.566;2024-02-21T06:35:43;3.55;;;2.00;;
38609;SDS011;24367;51.640;9.566;2024-02-21T06:38:12;2.92;;;1.30;;
38609;SDS011;24367;51.640;9.566;2024-02-21T06:40:40;3.15;;;1.38;;
38609;SDS011;24367;51.640;9.566;2024-02-21T06:43:07;4.15;;;1.77;;
38609;SDS011;24367;51.640;9.566;2024-02-21T06:45:33;2.72;;;1.48;;
38609;SDS011;24367;51.640;9.566;2024-02-21T06:47:59;2.95;;;1.40;;
38609;SDS011;24367;51.640;9.566;2024-02-21T06:50:26;2.88;;;1.35;;
38609;SDS011;24367;51.640;9.566;2024-02-21T06:52:52;2.33;;;1.40;;
38609;SDS011;24367;51.640;9.566;2024-02-21T06:55:19;2.45;;;1.20;;
38609;SDS011;24367;51.640;9.566;2024-02-21T06:57:47;2.92;;;1.27;;
38609;SDS011;24367;51.640;9.566;2024-02-21T07:00:14;3.15;;;1.27;;
38609;SDS011;24367;51.640;9.566;2024-02-21T07:02:42;2.28;;;1.25;;
38609;SDS011;24367;51.640;9.566;2024-02-21T07:05:08;8.02;;;2.03;;
38609;SDS011;24367;51.640;9.566;2024-02-21T07:07:35;3.45;;;1.60;;
38609;SDS011;24367;51.640;9.566;2024-02-21T07:10:01;1.98;;;1.20;;
38609;SDS011;24367;51.640;9.566;2024-02-21T07:12:29;2.92;;;1.30;;
38609;SDS011;24367;51.640;9.566;2024-02-21T07:14:57;4.15;;;1.33;;
38609;SDS011;24367;51.640;9.566;2024-02-21T07:17:24;3.67;;;1.45;;
38609;SDS011;24367;51.640;9.566;2024-02-21T07:19:50;2.38;;;1.38;;
38609;SDS011;24367;51.640;9.566;2024-02-21T07:22:17;3.30;;;1.40;;
38609;SDS011;24367;51.640;9.566;2024-02-21T07:24:43;2.88;;;1.35;;
38609;SDS011;24367;51.640;9.566;2024-02-21T07:27:09;2.28;;;1.30;;
38609;SDS011;24367;51.640;9.566;2024-02-21T07:29:36;3.03;;;1.25;;
38609;SDS011;24367;51.640;9.566;2024-02-21T07:32:04;2.38;;;1.33;;
38609;SDS011;24367;51.640;9.566;2024-02-21T07:34:31;3.45;;;1.50;;
38609;SDS011;24367;51.640;9.566;2024-02-21T07:36:57;3.13;;;1.92;;
38609;SDS011;24367;51.640;9.566;2024-02-21T07:39:24;2.90;;;1.52;;
38609;SDS011;24367;51.640;9.566;2024-02-21T07:41:50;2.60;;;1.17;;
38609;SDS011;24367;51.640;9.566;2024-02-21T07:44:17;8.35;;;2.22;;
38609;SDS011;24367;51.640;9.566;2024-02-21T07:46:43;2.95;;;1.30;;
38609;SDS011;24367;51.640;9.566;2024-02-21T07:49:11;2.95;;;1.27;;
38609;SDS011;24367;51.640;9.566;2024-02-21T07:51:37;3.03;;;1.30;;
38609;SDS011;24367;51.640;9.566;2024-02-21T07:54:04;3.40;;;1.60;;
38609;SDS011;24367;51.640;9.566;2024-02-21T07:56:30;8.32;;;2.60;;
38609;SDS011;24367;51.640;9.566;2024-02-21T07:58:57;8.40;;;3.35;;
38609;SDS011;24367;51.640;9.566;2024-02-21T08:01:24;8.07;;;3.50;;
38609;SDS011;24367;51.640;9.566;2024-02-21T08:03:50;8.05;;;3.60;;
38609;SDS011;24367;51.640;9.566;2024-02-21T08:06:18;9.00;;;4.15;;
38609;SDS011;24367;51.640;9.566;2024-02-21T08:08:44;10.23;;;3.92;;
38609;SDS011;24367;51.640;9.566;2024-02-21T08:11:11;8.15;;;3.10;;
38609;SDS011;24367;51.640;9.566;2024-02-21T08:13:38;10.02;;;3.15;;
38609;SDS011;24367;51.640;9.566;2024-02-21T08:16:04;7.15;;;2.38;;
38609;SDS011;24367;51.640;9.566;2024-02-21T08:18:31;6.55;;;2.25;;
38609;SDS011;24367;51.640;9.566;2024-02-21T08:21:01;5.22;;;2.10;;
38609;SDS011;24367;51.640;9.566;2024-02-21T08:23:29;6.20;;;2.22;;
38609;SDS011;24367;51.640;9.566;2024-02-21T08:25:55;6.25;;;2.13;;
38609;SDS011;24367;51.640;9.566;2024-02-21T08:28:22;5.97;;;1.92;;
38609;SDS011;24367;51.640;9.566;2024-02-21T08:30:48;4.97;;;2.00;;
38609;SDS011;24367;51.640;9.566;2024-02-21T08:33:14;4.53;;;1.70;;
38609;SDS011;24367;51.640;9.566;2024-02-21T08:35:42;4.97;;;2.33;;
38609;SDS011;24367;51.640;9.566;2024-02-21T08:38:09;5.38;;;1.73;;
38609;SDS011;24367;51.640;9.566;2024-02-21T08:40:37;4.65;;;1.58;;
38609;SDS011;24367;51.640;9.566;2024-02-21T08:43:03;4.30;;;1.52;;
38609;SDS011;24367;51.640;9.566;2024-02-21T08:45:30;4.05;;;1.35;;
38609;SDS011;24367;51.640;9.566;2024-02-21T08:47:56;3.88;;;1.75;;
38609;SDS011;24367;51.640;9.566;2024-02-21T08:50:23;5.43;;;1.95;;
38609;SDS011;24367;51.640;9.566;2024-02-21T08:52:49;3.97;;;1.65;;
38609;SDS011;24367;51.640;9.566;2024-02-21T08:55:15;3.75;;;1.60;;
38609;SDS011;24367;51.640;9.566;2024-02-21T08:57:43;5.15;;;2.00;;
38609;SDS011;24367;51.640;9.566;2024-02-21T09:00:10;4.07;;;1.83;;
38609;SDS011;24367;51.640;9.566;2024-02-21T09:02:39;4.88;;;1.67;;
38609;SDS011;24367;51.640;9.566;2024-02-21T09:05:08;6.32;;;1.52;;
38609;SDS011;24367;51.640;9.566;2024-02-21T09:07:34;6.53;;;1.77;;
38609;SDS011;24367;51.640;9.566;2024-02-21T09:10:01;4.80;;;1.88;;
38609;SDS011;24367;51.640;9.566;2024-02-21T09:12:28;4.28;;;1.67;;
38609;SDS011;24367;51.640;9.566;2024-02-21T09:14:56;4.30;;;1.65;;
38609;SDS011;24367;51.640;9.566;2024-02-21T09:17:22;5.57;;;1.95;;
38609;SDS011;24367;51.640;9.566;2024-02-21T09:19:50;5.80;;;1.92;;
38609;SDS011;24367;51.640;9.566;2024-02-21T09:22:16;6.15;;;1.48;;
38609;SDS011;24367;51.640;9.566;2024-02-21T09:24:43;4.63;;;1.73;;
38609;SDS011;24367;51.640;9.566;2024-02-21T09:27:10;3.95;;;1.60;;
38609;SDS011;24367;51.640;9.566;2024-02-21T09:29:36;2.63;;;1.40;;
38609;SDS011;24367;51.640;9.566;2024-02-21T09:32:06;6.22;;;2.03;;
38609;SDS011;24367;51.640;9.566;2024-02-21T09:34:32;5.45;;;1.77;;
38609;SDS011;24367;51.640;9.566;2024-02-21T09:36:59;5.97;;;1.50;;
38609;SDS011;24367;51.640;9.566;2024-02-21T09:39:25;5.88;;;1.48;;
38609;SDS011;24367;51.640;9.566;2024-02-21T09:41:53;5.95;;;2.33;;
38609;SDS011;24367;51.640;9.566;2024-02-21T09:44:23;7.28;;;2.03;;
38609;SDS011;24367;51.640;9.566;2024-02-21T09:46:52;6.95;;;2.00;;
38609;SDS011;24367;51.640;9.566;2024-02-21T09:49:26;7.43;;;2.10;;
38609;SDS011;24367;51.640;9.566;2024-02-21T09:51:56;7.38;;;1.75;;
38609;SDS011;24367;51.640;9.566;2024-02-21T09:54:23;5.70;;;1.77;;
38609;SDS011;24367;51.640;9.566;2024-02-21T09:56:50;5.65;;;2.08;;
38609;SDS011;24367;51.640;9.566;2024-02-21T09:59:17;4.97;;;1.60;;
38609;SDS011;24367;51.640;9.566;2024-02-21T10:01:44;5.22;;;1.48;;
38609;SDS011;24367;51.640;9.566;2024-02-21T10:04:12;4.57;;;1.75;;
38609;SDS011;24367;51.640;9.566;2024-02-21T10:06:40;5.10;;;1.60;;
38609;SDS011;24367;51.640;9.566;2024-02-21T10:09:07;5.05;;;2.00;;
38609;SDS011;24367;51.640;9.566;2024-02-21T10:11:34;6.57;;;1.50;;
38609;SDS011;24367;51.640;9.566;2024-02-21T10:14:04;5.45;;;1.77;;
38609;SDS011;24367;51.640;9.566;2024-02-21T10:16:31;4.60;;;1.80;;
38609;SDS011;24367;51.640;9.566;2024-02-21T10:18:58;3.78;;;1.48;;
38609;SDS011;24367;51.640;9.566;2024-02-21T10:21:25;4.55;;;2.08;;
38609;SDS011;24367;51.640;9.566;2024-02-21T10:23:52;3.38;;;1.50;;
38609;SDS011;24367;51.640;9.566;2024-02-21T10:26:19;4.68;;;1.60;;
38609;SDS011;24367;51.640;9.566;2024-02-21T10:28:46;4.80;;;1.55;;
38609;SDS011;24367;51.640;9.566;2024-02-21T10:31:20;3.35;;;1.42;;
38609;SDS011;24367;51.640;9.566;2024-02-21T10:33:53;3.88;;;1.35;;
38609;SDS011;24367;51.640;9.566;2024-02-21T10:36:20;3.63;;;1.45;;
38609;SDS011;24367;51.640;9.566;2024-02-21T10:38:46;3.60;;;1.40;;
38609;SDS011;24367;51.640;9.566;2024-02-21T10:41:14;4.53;;;1.60;;
38609;SDS011;24367;51.640;9.566;2024-02-21T10:43:41;6.13;;;1.50;;
38609;SDS011;24367;51.640;9.566;2024-02-21T10:46:07;3.47;;;1.20;;
38609;SDS011;24367;51.640;9.566;2024-02-21T10:48:42;4.40;;;1.63;;
38609;SDS011;24367;51.640;9.566;2024-02-21T10:53:42;4.45;;;1.45;;
38609;SDS011;24367;51.640;9.566;2024-02-21T10:56:16;6.40;;;1.80;;
38609;SDS011;24367;51.640;9.566;2024-02-21T10:58:48;2.60;;;1.10;;
38609;SDS011;24367;51.640;9.566;2024-02-21T11:01:15;6.00;;;1.80;;
38609;SDS011;24367;51.640;9.566;2024-02-21T11:03:44;3.50;;;1.25;;
38609;SDS011;24367;51.640;9.566;2024-02-21T11:06:11;3.55;;;1.17;;
38609;SDS011;24367;51.640;9.566;2024-02-21T11:08:38;3.85;;;1.40;;
38609;SDS011;24367;51.640;9.566;2024-02-21T11:11:05;4.72;;;1.58;;
38609;SDS011;24367;51.640;9.566;2024-02-21T11:13:34;2.88;;;1.40;;
38609;SDS011;24367;51.640;9.566;2024-02-21T11:16:07;3.63;;;1.38;;
38609;SDS011;24367;51.640;9.566;2024-02-21T11:21:02;3.50;;;1.33;;
38609;SDS011;24367;51.640;9.566;2024-02-21T11:23:30;4.00;;;1.38;;
38609;SDS011;24367;51.640;9.566;2024-02-21T11:26:03;2.67;;;1.05;;
38609;SDS011;24367;51.640;9.566;2024-02-21T11:28:31;2.90;;;1.50;;
38609;SDS011;24367;51.640;9.566;2024-02-21T11:31:06;3.40;;;1.42;;
38609;SDS011;24367;51.640;9.566;2024-02-21T11:33:33;4.32;;;1.40;;
38609;SDS011;24367;51.640;9.566;2024-02-21T11:36:00;3.05;;;1.27;;
38609;SDS011;24367;51.640;9.566;2024-02-21T11:38:26;3.40;;;1.30;;
38609;SDS011;24367;51.640;9.566;2024-02-21T11:40:53;4.20;;;1.45;;
38609;SDS011;24367;51.640;9.566;2024-02-21T11:43:19;5.15;;;1.30;;
38609;SDS011;24367;51.640;9.566;2024-02-21T11:45:47;5.03;;;1.40;;
38609;SDS011;24367;51.640;9.566;2024-02-21T11:48:14;4.70;;;1.40;;
38609;SDS011;24367;51.640;9.566;2024-02-21T11:50:40;5.45;;;1.50;;
38609;SDS011;24367;51.640;9.566;2024-02-21T11:53:07;3.33;;;1.63;;
38609;SDS011;24367;51.640;9.566;2024-02-21T11:55:34;3.95;;;1.45;;
38609;SDS011;24367;51.640;9.566;2024-02-21T11:58:00;3.97;;;1.30;;
38609;SDS011;24367;51.640;9.566;2024-02-21T12:00:28;4.57;;;1.33;;
38609;SDS011;24367;51.640;9.566;2024-02-21T12:02:56;2.45;;;1.40;;
38609;SDS011;24367;51.640;9.566;2024-02-21T12:05:26;3.38;;;1.88;;
38609;SDS011;24367;51.640;9.566;2024-02-21T12:07:54;9.45;;;1.52;;
38609;SDS011;24367;51.640;9.566;2024-02-21T12:10:20;2.72;;;1.30;;
38609;SDS011;24367;51.640;9.566;2024-02-21T12:12:47;3.33;;;1.20;;
38609;SDS011;24367;51.640;9.566;2024-02-21T12:15:13;5.53;;;1.40;;
38609;SDS011;24367;51.640;9.566;2024-02-21T12:17:40;3.15;;;1.70;;
38609;SDS011;24367;51.640;9.566;2024-02-21T12:20:08;5.15;;;1.60;;
38609;SDS011;24367;51.640;9.566;2024-02-21T12:22:36;4.15;;;1.75;;
38609;SDS011;24367;51.640;9.566;2024-02-21T12:25:03;3.95;;;1.77;;
38609;SDS011;24367;51.640;9.566;2024-02-21T12:27:32;5.97;;;1.55;;
38609;SDS011;24367;51.640;9.566;2024-02-21T12:29:59;4.93;;;1.50;;
38609;SDS011;24367;51.640;9.566;2024-02-21T12:32:25;5.38;;;1.50;;
38609;SDS011;24367;51.640;9.566;2024-02-21T12:34:52;3.97;;;1.63;;
38609;SDS011;24367;51.640;9.566;2024-02-21T12:37:21;3.65;;;1.38;;
38609;SDS011;24367;51.640;9.566;2024-02-21T12:39:48;5.43;;;1.70;;
38609;SDS011;24367;51.640;9.566;2024-02-21T12:42:14;4.97;;;1.90;;
38609;SDS011;24367;51.640;9.566;2024-02-21T12:44:42;4.25;;;1.23;;
38609;SDS011;24367;51.640;9.566;2024-02-21T12:47:08;7.28;;;1.55;;
38609;SDS011;24367;51.640;9.566;2024-02-21T12:49:35;3.58;;;1.20;;
38609;SDS011;24367;51.640;9.566;2024-02-21T12:52:01;2.70;;;1.17;;
38609;SDS011;24367;51.640;9.566;2024-02-21T12:54:30;3.60;;;1.42;;
38609;SDS011;24367;51.640;9.566;2024-02-21T12:56:57;3.17;;;1.17;;
38609;SDS011;24367;51.640;9.566;2024-02-21T12:59:27;4.38;;;1.17;;
38609;SDS011;24367;51.640;9.566;2024-02-21T13:01:54;5.05;;;1.40;;
38609;SDS011;24367;51.640;9.566;2024-02-21T13:04:21;4.53;;;1.50;;
38609;SDS011;24367;51.640;9.566;2024-02-21T13:06:47;3.20;;;1.20;;
38609;SDS011;24367;51.640;9.566;2024-02-21T13:09:14;2.70;;;1.30;;
38609;SDS011;24367;51.640;9.566;2024-02-21T13:11:42;3.97;;;1.50;;
38609;SDS011;24367;51.640;9.566;2024-02-21T13:14:10;2.78;;;1.30;;
38609;SDS011;24367;51.640;9.566;2024-02-21T13:16:36;4.18;;;1.58;;
38609;SDS011;24367;51.640;9.566;2024-02-21T13:19:05;4.25;;;1.83;;
38609;SDS011;24367;51.640;9.566;2024-02-21T13:21:32;6.82;;;1.70;;
38609;SDS011;24367;51.640;9.566;2024-02-21T13:23:58;3.45;;;1.50;;
38609;SDS011;24367;51.640;9.566;2024-02-21T13:26:25;5.38;;;1.40;;
38609;SDS011;24367;51.640;9.566;2024-02-21T13:28:53;8.75;;;2.38;;
38609;SDS011;24367;51.640;9.566;2024-02-21T13:31:20;7.35;;;2.28;;
38609;SDS011;24367;51.640;9.566;2024-02-21T13:33:46;6.85;;;2.60;;
38609;SDS011;24367;51.640;9.566;2024-02-21T13:36:13;6.97;;;2.50;;
38609;SDS011;24367;51.640;9.566;2024-02-21T13:38:40;6.65;;;2.33;;
38609;SDS011;24367;51.640;9.566;2024-02-21T13:41:06;8.35;;;2.42;;
38609;SDS011;24367;51.640;9.566;2024-02-21T13:43:33;6.85;;;2.22;;
38609;SDS011;24367;51.640;9.566;2024-02-21T13:46:01;8.82;;;2.58;;
38609;SDS011;24367;51.640;9.566;2024-02-21T13:48:30;7.15;;;2.58;;
38609;SDS011;24367;51.640;9.566;2024-02-21T13:50:58;12.20;;;2.10;;
38609;SDS011;24367;51.640;9.566;2024-02-21T13:53:27;6.82;;;2.30;;
38609;SDS011;24367;51.640;9.566;2024-02-21T13:55:53;6.38;;;2.20;;
38609;SDS011;24367;51.640;9.566;2024-02-21T13:58:20;6.50;;;1.98;;
38609;SDS011;24367;51.640;9.566;2024-02-21T14:00:47;5.50;;;1.80;;
38609;SDS011;24367;51.640;9.566;2024-02-21T14:03:15;5.85;;;1.80;;
38609;SDS011;24367;51.640;9.566;2024-02-21T14:05:43;8.38;;;2.08;;
38609;SDS011;24367;51.640;9.566;2024-02-21T14:08:09;5.97;;;1.83;;
38609;SDS011;24367;51.640;9.566;2024-02-21T14:10:36;7.30;;;2.08;;
38609;SDS011;24367;51.640;9.566;2024-02-21T14:13:03;6.55;;;1.92;;
38609;SDS011;24367;51.640;9.566;2024-02-21T14:15:29;5.45;;;2.03;;
38609;SDS011;24367;51.640;9.566;2024-02-21T14:17:56;6.15;;;1.90;;
38609;SDS011;24367;51.640;9.566;2024-02-21T14:20:24;5.97;;;1.90;;
38609;SDS011;24367;51.640;9.566;2024-02-21T14:22:50;7.32;;;1.52;;
38609;SDS011;24367;51.640;9.566;2024-02-21T14:25:17;6.25;;;1.90;;
38609;SDS011;24367;51.640;9.566;2024-02-21T14:27:43;9.27;;;1.83;;
38609;SDS011;24367;51.640;9.566;2024-02-21T14:30:10;5.35;;;1.98;;
38609;SDS011;24367;51.640;9.566;2024-02-21T14:32:36;3.45;;;1.50;;
38609;SDS011;24367;51.640;9.566;2024-02-21T14:35:03;4.97;;;1.65;;
38609;SDS011;24367;51.640;9.566;2024-02-21T14:37:32;7.20;;;1.67;;
38609;SDS011;24367;51.640;9.566;2024-02-21T14:39:58;13.25;;;2.05;;
38609;SDS011;24367;51.640;9.566;2024-02-21T14:42:26;8.05;;;2.22;;
38609;SDS011;24367;51.640;9.566;2024-02-21T14:44:52;6.80;;;2.05;;
38609;SDS011;24367;51.640;9.566;2024-02-21T14:47:28;5.63;;;1.70;;
38609;SDS011;24367;51.640;9.566;2024-02-21T14:49:55;8.68;;;2.22;;
38609;SDS011;24367;51.640;9.566;2024-02-21T14:52:21;6.05;;;1.65;;